Time;durP1;ratioP1;P1;durP2;ratioP2;P2;SDS_P1;SDS_P2;PMS_P1;PMS_P2;Temp;Humidity;BMP_temperature;BMP_pressure;BME280_temperature;BME280_humidity;BME280_pressure;Samples;Min_cycle;Max_cycle;Signal;HPM_P1;HPM_P2
2022/11/23 06:11:23;;;;;;;;;6.50;4.75;;;;;9.84;70.79;99623.41;2471402;23;45752;-84
2022/11/23 06:12:34;;;;;;;;;5.25;5.25;;;;;9.86;70.91;99616.31;2383379;28;46458;-85
2022/11/23 06:13:48;;;;;;;;;11.25;5.00;;;;;9.87;70.74;99616.25;2387084;28;46241;-85
2022/11/23 06:14:58;;;;;;;;;5.00;5.00;;;;;9.90;70.83;99616.06;2383434;28;47136;-85
2022/11/23 06:16:08;;;;;;;;;8.50;4.00;;;;;9.93;70.74;99616.84;2386989;28;44723;-84
2022/11/23 06:17:19;;;;;;;;;5.00;4.00;;;;;9.96;70.44;99609.69;2384841;28;45417;-84
2022/11/23 06:18:30;;;;;;;;;6.50;5.50;;;;;9.97;70.59;99606.16;2384976;28;45505;-82
2022/11/23 06:19:40;;;;;;;;;4.50;3.75;;;;;10.00;70.50;99613.03;2379439;28;46206;-82
2022/11/23 06:20:50;;;;;;;;;4.00;4.00;;;;;10.03;70.29;99612.84;2379280;28;45464;-82
2022/11/23 06:22:01;;;;;;;;;5.75;4.50;;;;;10.03;70.30;99610.22;2384964;28;45373;-81
2022/11/23 06:23:11;;;;;;;;;7.25;4.50;;;;;10.05;70.29;99610.19;2385200;28;45347;-82
2022/11/23 06:24:23;;;;;;;;;5.00;3.25;;;;;10.08;70.41;99612.63;2383396;28;46058;-81
2022/11/23 06:25:33;;;;;;;;;6.00;6.00;;;;;10.09;70.24;99607.31;2385079;28;45266;-81
2022/11/23 06:26:44;;;;;;;;;8.75;4.25;;;;;10.11;70.40;99601.97;2384392;28;45447;-82
2022/11/23 06:27:56;;;;;;;;;5.25;4.25;;;;;10.13;70.27;99608.00;2386302;28;44769;-81
2022/11/23 06:29:06;;;;;;;;;4.00;2.00;;;;;10.16;70.25;99601.75;2386908;28;45376;-82
2022/11/23 06:30:16;;;;;;;;;5.50;4.00;;;;;10.17;70.14;99592.97;2384979;28;45493;-81
2022/11/23 06:31:27;;;;;;;;;6.75;6.00;;;;;10.18;70.03;99597.25;2384816;28;46213;-82
2022/11/23 06:32:37;;;;;;;;;6.25;5.75;;;;;10.19;70.10;99602.47;2373637;28;45717;-81
2022/11/23 06:33:47;;;;;;;;;7.50;6.00;;;;;10.20;69.85;99603.28;2377947;28;46165;-82
2022/11/23 06:34:58;;;;;;;;;6.00;4.50;;;;;10.21;70.14;99597.13;2384784;28;45603;-82
2022/11/23 06:36:09;;;;;;;;;4.00;4.00;;;;;10.20;69.92;99590.16;2384158;28;45419;-82
2022/11/23 06:37:20;;;;;;;;;4.25;4.00;;;;;10.21;70.17;99587.47;2393519;28;44761;-82
2022/11/23 06:38:30;;;;;;;;;7.00;5.00;;;;;10.21;69.85;99582.22;2388419;28;45391;-82
2022/11/23 06:39:41;;;;;;;;;5.75;5.25;;;;;10.23;69.99;99580.38;2384860;28;45445;-82
2022/11/23 06:40:51;;;;;;;;;7.00;5.50;;;;;10.24;70.04;99584.69;2382875;28;46375;-82
2022/11/23 06:42:02;;;;;;;;;7.25;5.25;;;;;10.25;70.11;99575.03;2384854;28;45323;-82
2022/11/23 06:43:12;;;;;;;;;5.00;5.00;;;;;10.25;70.11;99572.41;2384733;28;45394;-82
2022/11/23 06:44:22;;;;;;;;;6.00;5.00;;;;;10.26;69.98;99566.22;2384365;28;45292;-84
2022/11/23 06:45:32;;;;;;;;;7.75;5.00;;;;;10.28;69.84;99577.50;2385538;28;45445;-84
2022/11/23 06:46:43;;;;;;;;;11.00;6.75;;;;;10.32;69.93;99567.72;2375394;28;44769;-84
2022/11/23 06:47:55;;;;;;;;;6.75;5.75;;;;;10.30;69.95;99557.25;2377364;28;45452;-82
2022/11/23 06:49:05;;;;;;;;;7.00;4.75;;;;;10.29;69.85;99558.19;2387599;28;44838;-82
2022/11/23 06:50:16;;;;;;;;;7.25;6.00;;;;;10.28;70.00;99553.88;2384656;28;46405;-82
2022/11/23 06:51:26;;;;;;;;;8.50;5.75;;;;;10.28;69.63;99556.50;2384311;28;45601;-82
2022/11/23 06:52:36;;;;;;;;;6.75;5.25;;;;;10.28;69.83;99553.88;2384576;28;45548;-82
2022/11/23 06:53:47;;;;;;;;;10.00;5.25;;;;;10.28;69.93;99561.75;2384880;28;45430;-82
2022/11/23 06:54:57;;;;;;;;;6.00;5.00;;;;;10.27;69.61;99559.22;2384622;28;46633;-82
2022/11/23 06:56:08;;;;;;;;;4.25;4.25;;;;;10.26;69.74;99550.47;2375300;28;44772;-82
2022/11/23 06:57:18;;;;;;;;;6.25;6.25;;;;;10.26;69.58;99560.13;2377596;28;45771;-82
2022/11/23 06:58:29;;;;;;;;;5.25;4.00;;;;;10.27;69.97;99561.84;2384734;28;45434;-81
2022/11/23 06:59:39;;;;;;;;;7.75;6.00;;;;;10.25;69.68;99554.00;2384662;28;46565;-82
2022/11/23 07:00:49;;;;;;;;;8.00;5.75;;;;;10.23;69.22;99559.34;2383423;28;45614;-82
2022/11/23 07:02:00;;;;;;;;;7.00;4.50;;;;;10.21;69.51;99558.59;2384306;28;45462;-82
2022/11/23 07:03:22;;;;;;;;;5.00;5.00;;;;;10.21;69.64;99557.72;2384689;28;45354;-81
2022/11/23 07:04:33;;;;;;;;;7.00;5.25;;;;;10.19;69.57;99549.94;2385607;28;47561;-82
2022/11/23 07:05:43;;;;;;;;;3.50;3.00;;;;;10.20;69.51;99556.88;2375259;28;44823;-82
2022/11/23 07:06:53;;;;;;;;;4.50;4.50;;;;;10.17;69.25;99556.19;2377503;28;45266;-81
2022/11/23 07:08:04;;;;;;;;;6.75;3.75;;;;;10.16;69.33;99554.50;2384970;28;45283;-81
2022/11/23 07:09:14;;;;;;;;;6.50;5.00;;;;;10.11;69.13;99552.94;2384436;28;45171;-80
2022/11/23 07:10:24;;;;;;;;;7.75;5.00;;;;;10.13;69.32;99545.84;2384916;28;45211;-82
2022/11/23 07:11:35;;;;;;;;;4.75;4.00;;;;;10.09;69.13;99551.31;2386731;28;46382;-80
2022/11/23 07:12:45;;;;;;;;;5.75;4.25;;;;;10.10;69.36;99551.25;2394457;28;45294;-82
2022/11/23 07:13:56;;;;;;;;;4.50;4.00;;;;;10.09;69.09;99543.44;2386771;28;46295;-81
2022/11/23 07:15:07;;;;;;;;;4.50;4.50;;;;;10.08;68.91;99547.00;2387752;28;45239;-81
2022/11/23 07:16:17;;;;;;;;;7.00;5.00;;;;;10.07;68.93;99546.16;2385927;28;46507;-81
2022/11/23 07:17:27;;;;;;;;;6.00;4.75;;;;;10.06;69.17;99546.22;2387783;28;45411;-81
2022/11/23 07:18:38;;;;;;;;;5.00;4.00;;;;;10.04;69.23;99548.06;2387307;28;46199;-82
2022/11/23 07:19:48;;;;;;;;;4.00;4.00;;;;;10.05;69.08;99545.38;2387751;28;45238;-82
2022/11/23 07:20:58;;;;;;;;;5.75;4.75;;;;;10.05;69.20;99557.66;2394288;28;45455;-81
2022/11/23 07:22:09;;;;;;;;;6.00;4.25;;;;;10.05;69.06;99552.41;2394320;28;44745;-81
2022/11/23 07:23:19;;;;;;;;;7.25;5.00;;;;;10.04;69.24;99551.56;2394142;28;46467;-81
2022/11/23 07:24:29;;;;;;;;;5.75;4.75;;;;;10.05;69.06;99555.88;2383309;28;45233;-81
2022/11/23 07:25:40;;;;;;;;;5.00;4.75;;;;;10.05;68.99;99560.28;2385473;28;45459;-81
2022/11/23 07:26:50;;;;;;;;;7.00;5.00;;;;;10.05;69.04;99558.50;2392173;28;45208;-81
2022/11/23 07:28:02;;;;;;;;;5.75;4.00;;;;;10.06;68.93;99559.34;2392431;28;45317;-81
2022/11/23 07:29:12;;;;;;;;;5.00;4.00;;;;;10.05;68.81;99552.41;2384679;28;44803;-81
2022/11/23 07:30:24;;;;;;;;;5.00;4.00;;;;;10.07;69.01;99553.19;2385066;28;45310;-81
2022/11/23 07:31:34;;;;;;;;;3.75;3.75;;;;;10.05;68.97;99552.41;2394399;28;45206;-81
2022/11/23 07:32:44;;;;;;;;;3.00;3.00;;;;;10.07;69.01;99556.66;2394070;28;45282;-82
2022/11/23 07:33:55;;;;;;;;;3.75;3.75;;;;;10.07;68.86;99559.28;2394312;28;45226;-81
2022/11/23 07:35:05;;;;;;;;;5.00;3.00;;;;;10.08;68.85;99557.50;2394213;28;45274;-81
2022/11/23 07:36:16;;;;;;;;;4.75;4.75;;;;;10.09;68.70;99559.19;2385507;28;45444;-81
2022/11/23 07:37:27;;;;;;;;;4.25;3.50;;;;;10.10;68.51;99563.53;2384521;28;46114;-81
2022/11/23 07:38:37;;;;;;;;;4.25;4.25;;;;;10.10;68.66;99559.13;2385031;28;44691;-81
2022/11/23 07:39:47;;;;;;;;;5.00;4.00;;;;;10.09;68.72;99561.81;2392959;28;45450;-81
2022/11/23 07:41:00;;;;;;;;;4.75;3.50;;;;;10.12;68.76;99565.13;2390959;28;46374;-82
2022/11/23 07:42:11;;;;;;;;;5.00;4.25;;;;;10.12;68.99;99573.00;2384766;28;45357;-83
2022/11/23 07:43:21;;;;;;;;;3.50;2.50;;;;;10.13;68.75;99566.84;2384815;28;45253;-83
2022/11/23 07:44:31;;;;;;;;;5.75;4.00;;;;;10.15;68.68;99569.38;2387644;28;48320;-83
2022/11/23 07:45:42;;;;;;;;;4.00;4.00;;;;;10.16;68.36;99567.63;2387824;28;45273;-83
2022/11/23 07:46:53;;;;;;;;;4.75;4.75;;;;;10.18;68.09;99565.75;2392692;28;45344;-83
2022/11/23 07:48:06;;;;;;;;;5.50;4.00;;;;;10.19;68.37;99575.34;2383760;28;45269;-83
2022/11/23 07:49:16;;;;;;;;;5.00;5.00;;;;;10.19;68.32;99564.84;2386862;28;46842;-83
2022/11/23 07:50:27;;;;;;;;;6.75;3.00;;;;;10.21;68.48;99570.88;2394048;28;45257;-83
2022/11/23 07:51:37;;;;;;;;;5.25;2.75;;;;;10.22;68.78;99564.69;2393946;28;46508;-83
2022/11/23 07:52:48;;;;;;;;;5.00;4.00;;;;;10.23;68.22;99574.25;2394091;28;44647;-83
2022/11/23 07:53:58;;;;;;;;;2.00;2.00;;;;;10.22;68.48;99564.69;2392307;28;45434;-83
2022/11/23 07:55:09;;;;;;;;;3.25;2.00;;;;;10.20;68.59;99570.00;2394129;28;44726;-83
2022/11/23 07:56:19;;;;;;;;;3.75;3.00;;;;;10.21;68.47;99561.22;2387314;28;46226;-83
2022/11/23 07:57:29;;;;;;;;;6.50;4.00;;;;;10.22;68.38;99564.69;2391260;28;44646;-83
2022/11/23 07:58:40;;;;;;;;;6.75;3.75;;;;;10.22;68.72;99560.28;2393909;28;45328;-83
2022/11/23 07:59:50;;;;;;;;;6.50;5.00;;;;;10.23;68.85;99561.97;2388840;28;45316;-83
2022/11/23 08:01:00;;;;;;;;;4.50;3.00;;;;;10.25;68.53;99554.00;2375489;28;47170;-83
2022/11/23 08:02:14;;;;;;;;;5.50;4.00;;;;;10.27;68.53;99554.81;2384071;28;44688;-83
2022/11/23 08:03:25;;;;;;;;;3.25;3.25;;;;;10.27;68.44;99562.69;2387149;28;46230;-83
2022/11/23 08:04:35;;;;;;;;;4.00;4.00;;;;;10.27;68.60;99554.81;2393920;28;45362;-83
2022/11/23 08:05:45;;;;;;;;;4.50;3.50;;;;;10.27;68.61;99562.69;2382944;28;47082;-83
2022/11/23 08:06:56;;;;;;;;;6.75;4.00;;;;;10.30;68.60;99569.53;2383649;28;44663;-83
2022/11/23 08:08:06;;;;;;;;;5.50;4.00;;;;;10.29;68.51;99566.09;2383956;28;46985;-82
2022/11/23 08:09:16;;;;;;;;;3.50;3.25;;;;;10.30;68.55;99569.53;2382074;28;45199;-82
2022/11/23 08:10:28;;;;;;;;;7.00;4.00;;;;;10.31;68.60;99568.63;2393290;28;46191;-82
2022/11/23 08:11:39;;;;;;;;;3.50;3.00;;;;;10.33;68.62;99564.13;2393577;28;45226;-82
2022/11/23 08:12:49;;;;;;;;;4.50;4.00;;;;;10.33;68.88;99562.38;2393785;28;46108;-81
2022/11/23 08:14:00;;;;;;;;;3.75;3.75;;;;;10.37;68.81;99564.84;2394077;28;45305;-82
2022/11/23 08:15:10;;;;;;;;;4.25;3.00;;;;;10.36;68.67;99566.63;2391238;28;46290;-82
2022/11/23 08:16:21;;;;;;;;;3.75;3.00;;;;;10.36;68.50;99566.63;2387217;28;44622;-82
2022/11/23 08:17:31;;;;;;;;;6.50;2.75;;;;;10.38;68.79;99559.50;2384727;28;45400;-82
2022/11/23 08:18:42;;;;;;;;;4.25;3.50;;;;;10.38;68.74;99563.91;2384183;28;45223;-82
2022/11/23 08:19:52;;;;;;;;;4.75;4.00;;;;;10.39;68.85;99555.97;2383807;28;45325;-82
2022/11/23 08:21:03;;;;;;;;;4.25;3.00;;;;;10.40;69.06;99555.00;2385045;28;45214;-82
2022/11/23 08:22:13;;;;;;;;;4.00;2.75;;;;;10.44;69.16;99553.09;2386204;28;45330;-82
2022/11/23 08:23:24;;;;;;;;;3.00;3.00;;;;;10.45;69.04;99554.78;2386197;28;45223;-82
2022/11/23 08:24:34;;;;;;;;;5.50;3.00;;;;;10.46;68.75;99553.84;2375342;28;46726;-82
2022/11/23 08:25:45;;;;;;;;;5.50;2.00;;;;;10.47;68.54;99552.91;2387670;28;45214;-82
2022/11/23 08:26:56;;;;;;;;;1.25;1.00;;;;;10.49;68.65;99555.47;2393753;28;45337;-82
2022/11/23 08:28:06;;;;;;;;;2.00;2.00;;;;;10.51;68.71;99551.03;2394072;28;45209;-82
2022/11/23 08:29:17;;;;;;;;;3.75;2.50;;;;;10.50;68.42;99546.66;2392870;28;46713;-82
2022/11/23 08:30:29;;;;;;;;;4.25;4.25;;;;;10.52;68.74;99545.69;2385934;28;44699;-82
2022/11/23 08:31:39;;;;;;;;;6.50;4.00;;;;;10.53;68.65;99536.88;2385356;28;45544;-82
2022/11/23 08:32:49;;;;;;;;;5.50;3.00;;;;;10.54;68.29;99541.19;2384057;28;45455;-82
2022/11/23 08:34:00;;;;;;;;;2.00;2.00;;;;;10.55;68.43;99540.28;2387227;28;45380;-82
2022/11/23 08:35:10;;;;;;;;;3.00;3.00;;;;;10.56;68.50;99530.63;2393886;28;45249;-82
2022/11/23 08:36:21;;;;;;;;;2.50;2.25;;;;;10.59;68.39;99543.59;2392786;28;47633;-83
2022/11/23 08:37:31;;;;;;;;;5.00;3.50;;;;;10.58;68.47;99532.22;2383714;28;45483;-82
2022/11/23 08:38:42;;;;;;;;;7.00;4.00;;;;;10.60;68.34;99529.50;2386457;28;46502;-82
2022/11/23 08:39:52;;;;;;;;;5.00;5.00;;;;;10.64;68.67;99520.53;2390059;28;44696;-82
2022/11/23 08:41:04;;;;;;;;;4.50;4.50;;;;;10.67;68.58;99516.91;2384125;28;45608;-82
2022/11/23 08:42:14;;;;;;;;;6.00;6.00;;;;;10.69;68.32;99513.25;2384286;28;45199;-83
2022/11/23 08:43:25;;;;;;;;;4.00;4.00;;;;;10.75;68.44;99516.50;2384396;28;46340;-82
2022/11/23 08:44:35;;;;;;;;;8.00;6.25;;;;;10.77;68.52;99512.84;2390768;28;45346;-82
2022/11/23 08:45:46;;;;;;;;;6.00;5.00;;;;;10.80;68.48;99507.44;2393600;28;45227;-82
2022/11/23 08:46:56;;;;;;;;;5.25;4.75;;;;;10.81;68.20;99500.41;2393830;28;45210;-82
2022/11/23 08:48:07;;;;;;;;;4.75;4.75;;;;;10.85;68.32;99494.03;2393504;28;45636;-82
2022/11/23 08:49:18;;;;;;;;;4.50;4.00;;;;;10.86;68.31;99490.50;2393682;28;44806;-82
2022/11/23 08:50:29;;;;;;;;;5.00;4.75;;;;;10.88;68.07;99479.88;2385792;28;45364;-82
2022/11/23 08:51:39;;;;;;;;;4.00;4.00;;;;;10.91;67.96;99487.63;2388378;28;44703;-82
2022/11/23 08:52:57;;;;;;;;;5.50;4.00;;;;;10.93;68.01;99487.50;2388684;28;45655;-82
2022/11/23 08:54:07;;;;;;;;;4.25;4.00;;;;;10.94;67.94;99481.34;2383529;28;45468;-82
2022/11/23 08:55:18;;;;;;;;;4.00;4.00;;;;;10.95;67.78;99467.25;2374014;28;47162;-82
2022/11/23 08:56:28;;;;;;;;;5.25;3.25;;;;;10.97;68.03;99468.00;2381469;28;45374;-82
2022/11/23 08:57:38;;;;;;;;;4.50;4.25;;;;;10.98;67.79;99467.94;2393441;28;46128;-82
2022/11/23 08:58:49;;;;;;;;;3.75;3.75;;;;;11.00;67.80;99476.59;2393802;28;45400;-82
2022/11/23 08:59:59;;;;;;;;;4.75;4.00;;;;;11.00;67.91;99471.31;2385092;28;45540;-82
2022/11/23 09:01:12;;;;;;;;;5.00;3.75;;;;;11.00;67.79;99476.59;2386711;28;46604;-82
2022/11/23 09:02:23;;;;;;;;;4.00;2.75;;;;;11.01;67.96;99485.31;2385338;28;45402;-82
2022/11/23 09:03:34;;;;;;;;;4.25;3.75;;;;;11.01;67.78;99480.88;2382971;28;45419;-81
2022/11/23 09:04:45;;;;;;;;;3.00;3.00;;;;;11.01;67.70;99486.16;2382983;28;45407;-82
2022/11/23 09:05:58;;;;;;;;;5.00;4.00;;;;;11.01;67.46;99483.53;2376864;28;45176;-82
2022/11/23 09:07:08;;;;;;;;;3.50;3.50;;;;;11.00;67.63;99481.84;2376646;28;45370;-82
2022/11/23 09:08:19;;;;;;;;;7.00;4.00;;;;;11.01;67.92;99483.53;2384291;28;45344;-82
2022/11/23 09:09:29;;;;;;;;;3.50;3.25;;;;;11.00;67.53;99481.84;2388818;28;45436;-82
2022/11/23 09:10:39;;;;;;;;;5.00;4.00;;;;;11.00;67.85;99489.72;2388177;28;44785;-82
2022/11/23 09:11:50;;;;;;;;;5.00;4.00;;;;;11.02;67.55;99485.22;2391691;28;45282;-82
2022/11/23 09:13:00;;;;;;;;;3.00;2.00;;;;;11.02;67.64;99476.50;2393474;28;45368;-82
2022/11/23 09:14:11;;;;;;;;;2.75;2.75;;;;;11.02;67.64;99479.97;2392578;28;45575;-82
2022/11/23 09:15:21;;;;;;;;;2.50;2.50;;;;;11.03;67.77;99475.56;2383888;28;45309;-82
2022/11/23 09:16:32;;;;;;;;;3.50;2.00;;;;;11.02;67.92;99463.34;2387292;28;46421;-82
2022/11/23 09:17:42;;;;;;;;;3.00;3.00;;;;;11.03;67.73;99465.91;2384403;28;45243;-83
2022/11/23 09:18:56;;;;;;;;;3.75;3.00;;;;;11.05;67.69;99459.69;2384667;28;46182;-83
2022/11/23 09:20:07;;;;;;;;;4.00;4.00;;;;;11.05;67.86;99457.06;2384183;28;45400;-82
2022/11/23 09:21:18;;;;;;;;;5.00;3.50;;;;;11.06;67.82;99453.50;2390885;28;45519;-82
2022/11/23 09:22:28;;;;;;;;;5.00;5.00;;;;;11.06;68.13;99458.78;2393346;28;45316;-82
2022/11/23 09:23:38;;;;;;;;;4.00;4.00;;;;;11.08;68.13;99451.66;2393364;28;45322;-82
2022/11/23 09:24:49;;;;;;;;;6.00;4.00;;;;;11.11;68.29;99462.81;2383182;28;45327;-82
2022/11/23 09:26:03;;;;;;;;;2.00;2.00;;;;;11.11;67.96;99454.13;2385643;28;46384;-82
2022/11/23 09:27:14;;;;;;;;;2.75;2.00;;;;;11.11;68.15;99457.56;2385044;28;45175;-82
2022/11/23 09:28:26;;;;;;;;;4.50;4.00;;;;;11.11;68.17;99457.56;2388361;28;46194;-82
2022/11/23 09:29:36;;;;;;;;;4.50;4.50;;;;;11.12;68.12;99458.41;2383951;28;45342;-83
2022/11/23 09:30:47;;;;;;;;;3.00;3.00;;;;;11.11;68.04;99462.81;2386729;28;45452;-82
2022/11/23 09:31:57;;;;;;;;;7.25;3.00;;;;;11.12;67.93;99459.28;2384039;28;45352;-82
2022/11/23 09:33:07;;;;;;;;;3.00;3.00;;;;;11.13;68.25;99462.75;2391826;28;46354;-82
2022/11/23 09:34:18;;;;;;;;;3.75;2.75;;;;;11.13;68.36;99453.09;2393257;28;45285;-83
2022/11/23 09:35:29;;;;;;;;;3.00;3.00;;;;;11.14;68.49;99446.03;2393141;28;45561;-82
2022/11/23 09:36:39;;;;;;;;;3.00;1.75;;;;;11.15;68.19;99453.00;2393384;28;45228;-83
2022/11/23 09:37:56;;;;;;;;;3.00;2.00;;;;;11.16;68.55;99457.31;2393076;28;45432;-82
2022/11/23 09:39:07;;;;;;;;;1.25;1.00;;;;;11.17;68.19;99459.00;2393270;28;45260;-82
2022/11/23 09:40:17;;;;;;;;;3.50;3.50;;;;;11.15;68.17;99458.25;2391502;28;45417;-82
2022/11/23 09:41:58;;;;;;;;;3.00;3.00;;;;;11.15;68.34;99450.38;2386443;28;45424;-82
2022/11/23 09:43:34;;;;;;;;;5.75;1.75;;;;;11.14;68.49;99448.66;2378958;28;46125;-82
2022/11/23 09:45:13;;;;;;;;;3.25;2.75;;;;;11.13;68.76;99455.72;2381678;28;44669;-82
2022/11/23 09:46:40;;;;;;;;;4.75;3.50;;;;;11.12;69.02;99454.00;2392071;28;46333;-82
2022/11/23 09:48:04;;;;;;;;;3.00;3.00;;;;;11.10;69.12;99444.50;2391770;28;44679;-82
2022/11/23 09:49:24;;;;;;;;;6.25;5.00;;;;;11.12;69.05;99447.91;2384632;28;45632;-82
2022/11/23 09:50:47;;;;;;;;;4.00;2.00;;;;;11.14;69.07;99449.50;2393184;28;45462;-82
2022/11/23 09:51:58;;;;;;;;;2.50;2.00;;;;;11.11;69.34;99447.03;2394356;28;46432;-81
2022/11/23 09:53:14;;;;;;;;;2.50;2.50;;;;;11.12;68.92;99442.63;2394603;28;45245;-82
2022/11/23 09:54:35;;;;;;;;;3.75;2.00;;;;;11.14;69.17;99440.78;2375765;28;46213;-82
2022/11/23 09:55:49;;;;;;;;;3.00;3.00;;;;;11.14;68.90;99443.41;2391043;28;45670;-82
2022/11/23 09:57:03;;;;;;;;;2.25;1.75;;;;;11.13;69.11;99434.69;2392939;28;45498;-81
2022/11/23 09:58:19;;;;;;;;;2.25;2.25;;;;;11.13;69.08;99439.09;2383563;28;44783;-81
2022/11/23 09:59:30;;;;;;;;;2.75;2.75;;;;;11.13;69.34;99445.19;2380195;28;45465;-81
2022/11/23 10:00:46;;;;;;;;;2.00;2.00;;;;;11.10;69.31;99445.38;2382078;28;45519;-81
2022/11/23 10:01:58;;;;;;;;;3.00;3.00;;;;;11.10;69.61;99449.78;2383981;28;46169;-82
2022/11/23 10:03:16;;;;;;;;;6.00;4.50;;;;;11.06;69.48;99435.97;2379945;28;45646;-81
2022/11/23 10:04:33;;;;;;;;;5.25;3.00;;;;;11.05;69.45;99436.03;2387440;28;45369;-81
2022/11/23 10:05:53;;;;;;;;;3.75;3.75;;;;;11.03;69.66;99439.63;2394162;28;45254;-82
2022/11/23 10:07:51;;;;;;;;;3.75;3.00;;;;;11.03;69.85;99444.88;2394466;28;45510;-81
2022/11/23 10:09:13;;;;;;;;;2.75;2.75;;;;;11.00;69.65;99431.88;2357909;29;46291;-81
2022/11/23 10:10:39;;;;;;;;;6.00;3.00;;;;;10.98;69.86;99425.88;2384850;28;45488;-81
2022/11/23 10:12:04;;;;;;;;;3.00;3.00;;;;;10.97;70.31;99436.47;2384150;28;45386;-81
2022/11/23 10:13:43;;;;;;;;;2.50;2.50;;;;;10.96;69.96;99437.41;2382889;28;45488;-81
2022/11/23 10:15:22;;;;;;;;;2.50;2.25;;;;;10.93;69.87;99430.53;2384054;28;45239;-81
2022/11/23 10:16:57;;;;;;;;;2.75;2.75;;;;;10.89;70.21;99436.91;2379375;28;46590;-81
2022/11/23 10:18:32;;;;;;;;;2.25;2.25;;;;;10.88;70.62;99435.19;2378954;28;45359;-82
2022/11/23 10:19:57;;;;;;;;;2.50;1.75;;;;;10.90;70.56;99439.44;2386156;28;45388;-82
2022/11/23 10:21:32;;;;;;;;;6.00;3.00;;;;;10.90;70.62;99433.31;2380030;28;45332;-82
2022/11/23 10:22:59;;;;;;;;;2.75;2.50;;;;;10.89;70.56;99442.16;2381966;28;45402;-82
2022/11/23 10:24:18;;;;;;;;;3.00;3.00;;;;;10.86;70.59;99451.06;2376015;28;45335;-82
2022/11/23 10:25:40;;;;;;;;;2.00;2.00;;;;;10.86;70.73;99453.69;2382179;28;45515;-81
2022/11/23 10:26:50;;;;;;;;;4.25;3.00;;;;;10.84;70.55;99468.69;2383933;28;45230;-82
2022/11/23 10:28:12;;;;;;;;;3.00;1.75;;;;;10.80;70.79;99470.63;2384774;28;46405;-81
2022/11/23 10:29:34;;;;;;;;;3.00;3.00;;;;;10.79;70.68;99476.81;2385207;28;44665;-81
2022/11/23 10:30:52;;;;;;;;;4.00;2.25;;;;;10.75;70.70;99477.91;2384108;28;45237;-81
2022/11/23 10:32:14;;;;;;;;;0.00;0.00;;;;;10.74;71.01;99470.94;2381497;28;45361;-81
2022/11/23 10:33:32;;;;;;;;;3.00;3.00;;;;;10.73;70.89;99465.78;2384251;28;46363;-82
2022/11/23 10:34:57;;;;;;;;;3.00;3.00;;;;;10.72;71.11;99464.94;2383603;28;44786;-81
2022/11/23 10:36:09;;;;;;;;;3.25;3.25;;;;;10.73;71.20;99473.69;2384489;28;46362;-81
2022/11/23 10:37:20;;;;;;;;;3.00;2.00;;;;;10.71;71.22;99473.78;2389277;28;45364;-81
2022/11/23 10:38:31;;;;;;;;;3.75;3.00;;;;;10.71;71.25;99476.41;2388722;28;45355;-81
2022/11/23 10:39:41;;;;;;;;;3.75;3.75;;;;;10.69;71.02;99473.84;2386152;28;44876;-82
2022/11/23 10:41:24;;;;;;;;;3.50;3.50;;;;;10.69;71.55;99467.75;2382210;28;46228;-81
2022/11/23 10:42:43;;;;;;;;;3.25;3.00;;;;;10.68;71.20;99472.16;2372020;28;45546;-81
2022/11/23 10:44:17;;;;;;;;;3.25;3.00;;;;;10.69;71.35;99468.56;2377349;28;45541;-81
2022/11/23 10:45:28;;;;;;;;;5.25;3.25;;;;;10.69;71.40;99478.25;2383935;28;45301;-81
2022/11/23 10:46:39;;;;;;;;;4.25;2.00;;;;;10.71;71.59;99471.16;2380013;28;46209;-81
2022/11/23 10:47:57;;;;;;;;;4.50;4.50;;;;;10.71;71.54;99475.53;2384431;28;45535;-81
2022/11/23 10:49:25;;;;;;;;;2.25;2.25;;;;;10.75;71.46;99483.19;2383896;28;45401;-81
2022/11/23 10:50:39;;;;;;;;;3.00;2.00;;;;;10.75;71.34;99483.19;2382922;28;44864;-82
2022/11/23 10:51:57;;;;;;;;;2.50;2.50;;;;;10.77;71.68;99481.31;2390518;28;45486;-81
2022/11/23 10:53:07;;;;;;;;;5.00;3.00;;;;;10.81;71.63;99489.91;2382459;28;45475;-81
2022/11/23 10:54:46;;;;;;;;;2.00;2.00;;;;;10.83;71.61;99479.28;2381216;28;45884;-81
2022/11/23 10:55:58;;;;;;;;;2.50;2.50;;;;;10.84;71.81;99484.44;2382931;28;45668;-82
2022/11/23 10:57:29;;;;;;;;;3.25;3.25;;;;;10.87;71.63;99473.78;2375733;28;45596;-81
2022/11/23 10:58:45;;;;;;;;;4.00;2.00;;;;;10.90;72.10;99480.66;2370932;28;45384;-82
2022/11/23 11:00:09;;;;;;;;;3.00;2.00;;;;;10.91;71.61;99477.91;2382077;28;45509;-82
2022/11/23 11:01:23;;;;;;;;;4.25;4.25;;;;;10.94;71.85;99476.91;2385144;28;44674;-81
2022/11/23 11:02:44;;;;;;;;;3.00;3.00;;;;;10.96;71.79;99475.06;2384984;28;46344;-81
2022/11/23 11:03:58;;;;;;;;;3.75;3.00;;;;;10.98;71.62;99477.59;2384730;28;45281;-82
2022/11/23 11:05:13;;;;;;;;;4.00;2.75;;;;;10.99;72.18;99474.88;2384881;28;46371;-82
2022/11/23 11:06:31;;;;;;;;;4.25;3.25;;;;;11.00;71.79;99481.00;2384950;28;45384;-81
2022/11/23 11:07:41;;;;;;;;;3.00;3.00;;;;;11.01;71.94;99488.78;2384663;28;45300;-82
2022/11/23 11:09:01;;;;;;;;;3.00;3.00;;;;;11.05;71.88;99478.97;2385013;28;44689;-82
2022/11/23 11:10:51;;;;;;;;;4.25;3.50;;;;;11.10;71.83;99487.44;2385024;28;45400;-82
2022/11/23 11:12:01;;;;;;;;;2.50;2.50;;;;;11.11;72.07;99486.50;2356397;29;45704;-82
2022/11/23 11:13:36;;;;;;;;;3.75;3.75;;;;;11.14;72.05;99483.69;2374793;28;46607;-81
2022/11/23 11:15:08;;;;;;;;;4.00;3.00;;;;;11.17;71.82;99484.47;2374527;28;45505;-81
2022/11/23 11:16:25;;;;;;;;;3.50;3.50;;;;;11.22;72.01;99479.78;2369656;28;46347;-82
2022/11/23 11:17:38;;;;;;;;;4.00;4.00;;;;;11.23;71.79;99481.50;2374345;28;45414;-82
2022/11/23 11:18:48;;;;;;;;;2.00;2.00;;;;;11.25;71.75;99479.63;2375319;28;45401;-82
2022/11/23 11:20:21;;;;;;;;;2.25;2.00;;;;;11.25;71.97;99485.75;2374952;28;45490;-82
2022/11/23 11:21:34;;;;;;;;;2.00;2.00;;;;;11.29;71.81;99485.53;2371792;28;46997;-81
2022/11/23 11:22:45;;;;;;;;;4.50;4.00;;;;;11.31;71.85;99492.41;2375218;28;45226;-82
2022/11/23 11:24:16;;;;;;;;;5.25;3.00;;;;;11.34;71.79;99494.03;2373289;28;46143;-82
2022/11/23 11:25:33;;;;;;;;;3.00;3.00;;;;;11.37;71.96;99488.59;2374058;28;45322;-82
2022/11/23 11:26:56;;;;;;;;;5.00;5.00;;;;;11.40;71.76;99483.19;2374519;28;45714;-81
2022/11/23 11:28:40;;;;;;;;;6.00;3.50;;;;;11.43;71.94;99492.69;2370246;28;45184;-81
2022/11/23 11:29:54;;;;;;;;;5.75;4.00;;;;;11.42;72.03;99502.34;2367212;28;46173;-81
2022/11/23 11:31:14;;;;;;;;;3.00;3.00;;;;;11.43;71.66;99508.47;2373167;28;45175;-81
2022/11/23 11:32:31;;;;;;;;;4.25;4.00;;;;;11.42;71.40;99512.88;2375000;28;46514;-81
2022/11/23 11:33:55;;;;;;;;;5.25;3.75;;;;;11.45;71.90;99507.44;2371516;28;44758;-81
2022/11/23 11:35:11;;;;;;;;;2.75;2.75;;;;;11.48;71.96;99509.88;2372051;28;45461;-81
2022/11/23 11:36:27;;;;;;;;;4.00;4.00;;;;;11.51;71.83;99505.41;2372864;28;44644;-81
2022/11/23 11:37:39;;;;;;;;;5.00;2.75;;;;;11.56;72.46;99503.34;2375501;28;46496;-81
2022/11/23 11:38:54;;;;;;;;;6.00;6.00;;;;;11.62;71.98;99516.16;2374103;28;45275;-81
2022/11/23 11:40:22;;;;;;;;;7.50;6.00;;;;;11.67;71.96;99508.84;2373886;28;45505;-81
2022/11/23 11:41:35;;;;;;;;;5.00;5.00;;;;;11.70;71.94;99503.38;2374835;28;45243;-81
2022/11/23 11:43:30;;;;;;;;;7.75;5.25;;;;;11.75;71.73;99515.47;2375262;28;45500;-81
2022/11/23 11:44:44;;;;;;;;;5.00;5.00;;;;;11.77;71.80;99509.16;2357106;28;44827;-81
2022/11/23 11:45:58;;;;;;;;;7.25;5.00;;;;;11.80;71.68;99508.16;2365801;29;45249;-81
2022/11/23 11:47:48;;;;;;;;;4.75;4.75;;;;;11.86;71.71;99515.66;2365398;29;46639;-81
2022/11/23 11:49:03;;;;;;;;;4.00;4.00;;;;;11.93;71.96;99526.69;2365930;28;46425;-81
2022/11/23 11:50:33;;;;;;;;;5.25;5.25;;;;;11.98;72.18;99527.28;2374161;28;44760;-81
2022/11/23 11:51:51;;;;;;;;;7.00;5.00;;;;;12.02;71.85;99523.53;2374562;28;45510;-81
2022/11/23 11:53:11;;;;;;;;;5.00;5.00;;;;;12.09;71.97;99512.63;2375180;28;45437;-81
2022/11/23 11:54:35;;;;;;;;;4.75;4.00;;;;;12.17;72.36;99518.34;2366175;28;45438;-81
2022/11/23 11:55:55;;;;;;;;;5.25;5.25;;;;;12.24;72.07;99514.41;2365959;28;44794;-81
2022/11/23 11:57:19;;;;;;;;;7.50;6.00;;;;;12.30;72.33;99518.44;2369416;28;45327;-80
2022/11/23 11:58:33;;;;;;;;;7.00;6.00;;;;;12.35;71.95;99526.91;2362621;29;45473;-81
2022/11/23 11:59:48;;;;;;;;;6.25;5.50;;;;;12.38;72.26;99534.63;2368177;28;45409;-81
2022/11/23 12:01:30;;;;;;;;;8.00;5.50;;;;;12.45;71.96;99528.97;2366176;28;45298;-81
2022/11/23 12:02:54;;;;;;;;;7.50;6.25;;;;;12.48;72.13;99531.44;2366807;28;45266;-81
2022/11/23 12:04:11;;;;;;;;;5.00;5.00;;;;;12.53;72.04;99533.78;2367565;28;45172;-81